Time;durP1;ratioP1;P1;durP2;ratioP2;P2;SDS_P1;SDS_P2;PMS_P1;PMS_P2;Temp;Humidity;BMP_temperature;BMP_pressure;BME280_temperature;BME280_humidity;BME280_pressure;Samples;Min_cycle;Max_cycle;Signal;HPM_P1;HPM_P2
2023/12/10 00:01:59;;;;;;;5.67;4.77;;;5.20;99.90;;;;;;4996979;28;20597;-65
2023/12/10 00:04:28;;;;;;;5.50;5.00;;;5.20;99.90;;;;;;4994805;28;20991;-65
2023/12/10 00:06:57;;;;;;;5.30;4.80;;;5.10;99.90;;;;;;4998387;28;20498;-65
2023/12/10 00:09:26;;;;;;;5.10;4.60;;;5.20;99.90;;;;;;4995771;28;20477;-65
2023/12/10 00:11:54;;;;;;;6.13;4.80;;;5.20;99.90;;;;;;4995309;28;20461;-66
2023/12/10 00:14:22;;;;;;;5.93;5.23;;;5.20;99.90;;;;;;4992859;28;20496;-65
2023/12/10 00:16:50;;;;;;;5.70;5.13;;;5.10;99.90;;;;;;4993058;28;20640;-65
2023/12/10 00:19:18;;;;;;;9.10;5.40;;;5.10;99.90;;;;;;4997437;28;20618;-65
2023/12/10 00:21:48;;;;;;;6.87;5.37;;;5.10;99.90;;;;;;4997241;28;20483;-65
2023/12/10 00:24:16;;;;;;;6.20;5.67;;;5.10;99.90;;;;;;4997693;28;20484;-65
2023/12/10 00:26:44;;;;;;;6.00;5.40;;;5.10;99.90;;;;;;4998101;28;20491;-65
2023/12/10 00:29:12;;;;;;;5.80;5.20;;;5.10;99.90;;;;;;4997022;28;20559;-65
2023/12/10 00:31:43;;;;;;;5.87;5.13;;;5.10;99.90;;;;;;4996377;28;20465;-65
2023/12/10 00:34:11;;;;;;;6.27;5.67;;;5.10;99.90;;;;;;4996663;28;20530;-65
2023/12/10 00:36:39;;;;;;;5.77;5.20;;;5.10;99.90;;;;;;4995848;28;20508;-65
2023/12/10 00:39:09;;;;;;;6.47;5.83;;;5.10;99.90;;;;;;4994622;28;21205;-65
2023/12/10 00:41:37;;;;;;;5.60;5.07;;;5.10;99.90;;;;;;4997439;28;20668;-65
2023/12/10 00:44:05;;;;;;;5.97;5.47;;;5.10;99.90;;;;;;4996081;28;21069;-65
2023/12/10 00:46:33;;;;;;;5.93;5.33;;;5.10;99.90;;;;;;4996261;28;20565;-65
2023/12/10 00:49:01;;;;;;;6.10;5.50;;;5.10;99.90;;;;;;4994106;28;20539;-65
2023/12/10 00:51:30;;;;;;;6.00;5.40;;;5.00;99.90;;;;;;4996220;28;20499;-66
2023/12/10 00:53:58;;;;;;;5.73;5.23;;;5.00;99.90;;;;;;4997485;28;20519;-65
2023/12/10 00:56:27;;;;;;;5.93;5.33;;;5.10;99.90;;;;;;4996713;28;20554;-66
2023/12/10 00:58:55;;;;;;;5.27;4.63;;;5.10;99.90;;;;;;4999403;28;20551;-66
2023/12/10 01:01:23;;;;;;;5.57;5.07;;;5.10;99.90;;;;;;5020672;28;20460;-66
2023/12/10 01:03:52;;;;;;;4.97;4.53;;;5.10;99.90;;;;;;5000546;28;20500;-66
2023/12/10 01:06:20;;;;;;;5.33;4.83;;;5.10;99.90;;;;;;4996993;28;20474;-65
2023/12/10 01:08:48;;;;;;;4.30;4.00;;;5.10;99.90;;;;;;4993128;28;20485;-65
2023/12/10 01:11:16;;;;;;;5.30;4.40;;;5.10;99.90;;;;;;4996342;28;20488;-65
2023/12/10 01:13:46;;;;;;;4.83;4.43;;;5.10;99.90;;;;;;4994846;28;20536;-65
2023/12/10 01:16:16;;;;;;;5.33;4.83;;;5.10;99.90;;;;;;4996103;28;20828;-65
2023/12/10 01:18:45;;;;;;;5.10;4.60;;;5.10;99.90;;;;;;4996672;28;20523;-65
2023/12/10 01:21:13;;;;;;;5.60;5.10;;;5.10;99.90;;;;;;4996585;28;20628;-65
2023/12/10 01:23:41;;;;;;;5.70;5.20;;;5.10;99.90;;;;;;4996423;28;21012;-65
2023/12/10 01:26:12;;;;;;;5.13;4.63;;;5.10;99.90;;;;;;4997467;28;20555;-66
2023/12/10 01:28:40;;;;;;;5.23;4.83;;;5.10;99.90;;;;;;4996620;28;21110;-65
2023/12/10 01:31:10;;;;;;;5.10;4.70;;;5.10;99.90;;;;;;4997769;28;20984;-65
2023/12/10 01:33:38;;;;;;;6.03;5.43;;;5.10;99.90;;;;;;4998266;28;20465;-66
2023/12/10 01:36:07;;;;;;;5.27;4.77;;;5.10;99.90;;;;;;4997158;28;20934;-65
2023/12/10 01:38:35;;;;;;;5.33;4.83;;;5.10;99.90;;;;;;4995460;28;20568;-66
2023/12/10 01:41:04;;;;;;;5.07;4.67;;;5.10;99.90;;;;;;4997661;28;20950;-65
2023/12/10 01:43:32;;;;;;;4.00;3.70;;;5.10;99.90;;;;;;4996636;28;20496;-65
2023/12/10 01:46:00;;;;;;;5.60;4.50;;;5.10;99.90;;;;;;4996332;28;20570;-65
2023/12/10 01:48:30;;;;;;;5.30;4.90;;;5.10;99.90;;;;;;4997411;28;20485;-66
2023/12/10 01:50:59;;;;;;;4.90;4.43;;;5.10;99.90;;;;;;4993227;28;20472;-65
2023/12/10 01:53:27;;;;;;;7.37;5.77;;;5.10;99.90;;;;;;4996285;28;20549;-65
2023/12/10 01:55:55;;;;;;;5.30;4.80;;;5.10;99.90;;;;;;4994087;28;20546;-65
2023/12/10 01:58:23;;;;;;;5.20;4.67;;;5.10;99.90;;;;;;4994142;28;20558;-65
2023/12/10 02:00:51;;;;;;;5.40;4.90;;;5.10;99.90;;;;;;4995766;28;20952;-65
2023/12/10 02:03:20;;;;;;;5.77;5.20;;;5.20;99.90;;;;;;4996345;28;20496;-65
2023/12/10 02:05:50;;;;;;;6.00;5.30;;;5.20;99.90;;;;;;4992610;28;20542;-65
2023/12/10 02:08:19;;;;;;;6.67;5.30;;;5.20;99.90;;;;;;4991676;28;20480;-65
2023/12/10 02:10:47;;;;;;;5.50;4.97;;;5.20;99.90;;;;;;4994994;28;20876;-68
2023/12/10 02:13:16;;;;;;;6.37;5.33;;;5.20;99.90;;;;;;4995609;28;20552;-65
2023/12/10 02:15:45;;;;;;;5.67;5.07;;;5.20;99.90;;;;;;4995353;28;20508;-65
2023/12/10 02:18:17;;;;;;;6.10;5.50;;;5.20;99.90;;;;;;4993334;28;20488;-65
2023/12/10 02:20:45;;;;;;;6.20;5.60;;;5.30;99.90;;;;;;4995364;28;20480;-65
2023/12/10 02:23:24;;;;;;;6.10;5.50;;;5.30;99.90;;;;;;4994680;28;20593;-65
2023/12/10 02:25:53;;;;;;;6.23;5.40;;;5.30;99.90;;;;;;4995674;28;20504;-65
2023/12/10 02:28:22;;;;;;;6.43;5.67;;;5.30;99.90;;;;;;4995612;28;20539;-65
2023/12/10 02:30:50;;;;;;;7.50;5.67;;;5.30;99.90;;;;;;4994340;28;20480;-66
2023/12/10 02:33:18;;;;;;;7.80;5.80;;;5.30;99.90;;;;;;4996988;28;20475;-65
2023/12/10 02:35:47;;;;;;;6.10;5.20;;;5.30;99.90;;;;;;4998807;28;20654;-65
2023/12/10 02:38:20;;;;;;;5.97;5.30;;;5.40;99.90;;;;;;4997759;28;22463;-65
2023/12/10 02:40:49;;;;;;;6.27;5.13;;;5.40;99.90;;;;;;4998723;28;20499;-65
2023/12/10 02:43:19;;;;;;;6.73;5.20;;;5.40;99.90;;;;;;4996966;28;20575;-65
2023/12/10 02:45:47;;;;;;;5.97;5.20;;;5.40;99.90;;;;;;5000802;28;20547;-65
2023/12/10 02:48:21;;;;;;;7.23;5.90;;;5.40;99.90;;;;;;4995537;28;20630;-65
2023/12/10 02:50:50;;;;;;;6.10;5.50;;;5.40;99.90;;;;;;4999047;28;20511;-65
2023/12/10 02:53:18;;;;;;;8.43;5.80;;;5.50;99.90;;;;;;5000595;28;20531;-65
2023/12/10 02:55:46;;;;;;;8.33;5.77;;;5.50;99.90;;;;;;5007640;28;20499;-65
2023/12/10 02:58:15;;;;;;;7.87;5.63;;;5.50;99.90;;;;;;5004053;28;20546;-65
2023/12/10 03:00:44;;;;;;;7.53;5.70;;;5.50;99.90;;;;;;4998357;28;20750;-65
2023/12/10 03:03:13;;;;;;;6.77;5.50;;;5.60;99.90;;;;;;4997626;28;20481;-65
2023/12/10 03:05:41;;;;;;;6.90;6.20;;;5.60;99.90;;;;;;4994697;28;20946;-65
2023/12/10 03:08:09;;;;;;;6.17;5.53;;;5.60;99.90;;;;;;4999829;28;20480;-66
2023/12/10 03:10:37;;;;;;;6.60;5.90;;;5.70;99.90;;;;;;5017533;28;20495;-66
2023/12/10 03:13:05;;;;;;;8.57;5.60;;;5.70;99.90;;;;;;5017392;28;20473;-65
2023/12/10 03:15:33;;;;;;;9.67;6.03;;;5.70;99.90;;;;;;4999063;28;20483;-65
2023/12/10 03:18:02;;;;;;;8.87;6.00;;;5.70;99.90;;;;;;4998104;28;20488;-65
2023/12/10 03:20:31;;;;;;;12.83;6.90;;;5.70;99.90;;;;;;4999709;28;20476;-66
2023/12/10 03:22:59;;;;;;;8.23;6.23;;;5.80;99.90;;;;;;4998523;28;20868;-65
2023/12/10 03:25:27;;;;;;;10.00;6.10;;;5.80;99.90;;;;;;4998731;28;20488;-65
2023/12/10 03:27:55;;;;;;;8.43;6.00;;;5.80;99.90;;;;;;4998783;28;20480;-65
2023/12/10 03:30:23;;;;;;;8.77;5.97;;;5.80;99.90;;;;;;4997787;28;20887;-65
2023/12/10 03:32:51;;;;;;;9.73;6.10;;;5.90;99.90;;;;;;4997450;28;20472;-66
2023/12/10 03:35:21;;;;;;;9.80;6.13;;;5.80;99.90;;;;;;4998475;28;20476;-65
2023/12/10 03:37:49;;;;;;;7.70;5.97;;;5.80;99.90;;;;;;4998346;28;20504;-65
2023/12/10 03:40:17;;;;;;;10.47;7.00;;;5.90;99.90;;;;;;4999089;28;20468;-65
2023/12/10 03:42:45;;;;;;;9.23;6.00;;;5.90;99.90;;;;;;4995956;28;20563;-65
2023/12/10 03:45:13;;;;;;;7.13;6.30;;;5.90;99.90;;;;;;4996529;28;21079;-65
2023/12/10 03:47:46;;;;;;;11.70;6.07;;;5.90;99.90;;;;;;4994414;28;21045;-65
2023/12/10 03:50:15;;;;;;;9.83;5.00;;;5.90;99.90;;;;;;4996323;28;20847;-65
2023/12/10 03:52:44;;;;;;;8.83;5.70;;;5.90;99.90;;;;;;4997727;28;20551;-65
2023/12/10 03:55:12;;;;;;;11.23;5.67;;;5.90;99.90;;;;;;4997396;28;20496;-65
2023/12/10 03:57:40;;;;;;;6.57;4.93;;;5.90;99.90;;;;;;4993349;28;20477;-65
2023/12/10 04:00:09;;;;;;;9.63;5.77;;;5.90;99.90;;;;;;4995360;28;20515;-65
2023/12/10 04:02:38;;;;;;;7.07;5.60;;;5.90;99.90;;;;;;4991030;28;20481;-65
2023/12/10 04:05:11;;;;;;;7.97;5.50;;;6.00;99.90;;;;;;4997274;28;20573;-65
2023/12/10 04:07:39;;;;;;;10.37;5.10;;;6.00;99.90;;;;;;4996206;28;20508;-65
2023/12/10 04:10:09;;;;;;;15.20;5.53;;;6.00;99.90;;;;;;4996298;28;20476;-65
2023/12/10 04:12:38;;;;;;;12.83;5.13;;;6.00;99.90;;;;;;4993545;28;20837;-66
2023/12/10 04:15:07;;;;;;;8.70;4.83;;;6.00;99.90;;;;;;4996867;28;20551;-65
2023/12/10 04:17:35;;;;;;;8.87;4.33;;;6.10;99.90;;;;;;4998836;28;20559;-65
2023/12/10 04:20:04;;;;;;;13.10;4.67;;;6.10;99.90;;;;;;4996030;28;20930;-65
2023/12/10 04:22:32;;;;;;;8.57;4.30;;;6.10;99.90;;;;;;4997490;28;20961;-65
2023/12/10 04:25:00;;;;;;;13.37;4.70;;;6.20;99.90;;;;;;4996099;28;20496;-65
2023/12/10 04:27:29;;;;;;;12.73;4.80;;;6.20;99.90;;;;;;4994509;28;20480;-66
2023/12/10 04:29:58;;;;;;;13.83;4.90;;;6.20;99.90;;;;;;4995129;28;20573;-65
2023/12/10 04:32:26;;;;;;;16.10;4.70;;;6.20;99.90;;;;;;4995910;28;21019;-65
2023/12/10 04:34:54;;;;;;;21.63;5.20;;;6.20;99.90;;;;;;4997739;28;20469;-65
2023/12/10 04:37:22;;;;;;;14.60;4.77;;;6.30;99.90;;;;;;4993722;28;20481;-65
2023/12/10 04:39:50;;;;;;;13.73;4.30;;;6.30;99.90;;;;;;4996424;28;20830;-65
2023/12/10 04:42:19;;;;;;;12.93;4.30;;;6.40;99.90;;;;;;4998534;28;20469;-65
2023/12/10 04:44:48;;;;;;;13.50;4.10;;;6.40;99.90;;;;;;4997175;28;20492;-65
2023/12/10 04:47:16;;;;;;;13.40;5.17;;;6.50;99.90;;;;;;4993279;28;20580;-65
2023/12/10 04:49:44;;;;;;;15.50;5.57;;;6.50;99.90;;;;;;4997820;28;20555;-66
2023/12/10 04:52:12;;;;;;;12.57;4.90;;;6.60;99.90;;;;;;4996248;28;20608;-67
2023/12/10 04:54:40;;;;;;;15.20;5.10;;;6.60;99.90;;;;;;4998316;28;20577;-65
2023/12/10 04:57:10;;;;;;;18.43;4.27;;;6.60;99.90;;;;;;4997229;28;20489;-65
2023/12/10 04:59:38;;;;;;;17.90;4.77;;;6.70;99.90;;;;;;5000777;28;20473;-65
2023/12/10 05:02:07;;;;;;;10.00;3.70;;;6.60;99.90;;;;;;4997129;28;20473;-65
2023/12/10 05:04:35;;;;;;;12.17;4.50;;;6.70;99.90;;;;;;4996959;28;20963;-65
2023/12/10 05:07:04;;;;;;;13.27;3.73;;;6.70;99.90;;;;;;4996514;28;20530;-65
2023/12/10 05:09:32;;;;;;;10.73;4.10;;;6.80;99.90;;;;;;4998052;28;20497;-65
2023/12/10 05:12:00;;;;;;;17.30;4.97;;;6.80;99.90;;;;;;4996296;28;21060;-65
2023/12/10 05:14:28;;;;;;;16.27;4.17;;;6.80;99.90;;;;;;4997772;28;20504;-66
2023/12/10 05:16:56;;;;;;;13.17;4.10;;;6.80;99.90;;;;;;4996118;28;20580;-65
2023/12/10 05:19:26;;;;;;;9.37;3.40;;;6.90;99.90;;;;;;4996895;28;20483;-66
2023/12/10 05:21:54;;;;;;;13.47;4.13;;;6.90;99.90;;;;;;5003224;28;20479;-65
2023/12/10 05:24:22;;;;;;;14.90;3.93;;;6.90;99.90;;;;;;5016144;28;20467;-66
2023/12/10 05:26:50;;;;;;;8.70;3.50;;;6.90;99.90;;;;;;5008063;28;20492;-65
2023/12/10 05:29:18;;;;;;;14.93;3.90;;;6.90;99.90;;;;;;4996730;28;20554;-66
2023/12/10 05:31:46;;;;;;;15.00;4.67;;;6.90;99.90;;;;;;4999108;28;20508;-65
2023/12/10 05:34:14;;;;;;;9.03;3.70;;;6.90;99.90;;;;;;4997834;28;20525;-66
2023/12/10 05:36:44;;;;;;;10.53;3.70;;;6.90;99.90;;;;;;4999179;28;20613;-66
2023/12/10 05:39:12;;;;;;;9.43;2.93;;;7.00;99.90;;;;;;4991800;28;20485;-66
2023/12/10 05:41:41;;;;;;;10.27;3.70;;;7.00;99.90;;;;;;4993919;28;20479;-65
2023/12/10 05:44:09;;;;;;;10.40;3.50;;;7.00;99.90;;;;;;4996057;28;20500;-66
2023/12/10 05:46:37;;;;;;;12.53;4.70;;;7.00;99.90;;;;;;4993330;28;20571;-65
2023/12/10 05:49:05;;;;;;;12.07;4.63;;;7.00;99.90;;;;;;4997312;28;20559;-68
2023/12/10 05:51:33;;;;;;;8.87;3.17;;;7.00;99.90;;;;;;4997537;28;20499;-65
2023/12/10 05:54:03;;;;;;;9.13;3.27;;;7.00;99.90;;;;;;4995772;28;20476;-65
2023/12/10 05:56:31;;;;;;;11.90;3.70;;;7.10;99.90;;;;;;4992870;28;20526;-66
2023/12/10 05:59:01;;;;;;;10.07;3.40;;;7.10;99.90;;;;;;4994329;28;20599;-66
2023/12/10 06:01:29;;;;;;;12.63;3.50;;;7.10;99.90;;;;;;4991635;28;20471;-65
2023/12/10 06:03:57;;;;;;;8.80;3.13;;;7.10;99.90;;;;;;4990930;28;20473;-65
2023/12/10 06:06:25;;;;;;;11.63;4.33;;;7.10;99.90;;;;;;4992881;28;20616;-65
2023/12/10 06:08:54;;;;;;;12.67;3.27;;;7.10;99.90;;;;;;4997976;28;20492;-65
2023/12/10 06:11:23;;;;;;;10.97;3.50;;;7.10;99.90;;;;;;5001226;28;20472;-65
2023/12/10 06:13:51;;;;;;;11.07;3.57;;;7.10;99.90;;;;;;4997614;28;20500;-65
2023/12/10 06:16:19;;;;;;;10.40;3.23;;;7.10;99.90;;;;;;4996691;28;20555;-65
2023/12/10 06:18:47;;;;;;;8.60;2.90;;;7.10;99.90;;;;;;4989211;28;20518;-65
2023/12/10 06:21:15;;;;;;;10.57;3.30;;;7.10;99.90;;;;;;4995751;28;21114;-66
2023/12/10 06:23:43;;;;;;;12.70;3.30;;;7.10;99.90;;;;;;4999866;28;20487;-66
2023/12/10 06:26:11;;;;;;;13.20;3.30;;;7.10;99.90;;;;;;4997731;28;20610;-65
2023/12/10 06:28:41;;;;;;;9.03;3.40;;;7.20;99.90;;;;;;4997091;28;20471;-67
2023/12/10 06:31:09;;;;;;;9.53;3.13;;;7.10;99.90;;;;;;4997996;28;20572;-66
2023/12/10 06:33:37;;;;;;;8.17;3.07;;;7.20;99.90;;;;;;4998218;28;20567;-65
2023/12/10 06:36:06;;;;;;;7.83;3.90;;;7.20;99.90;;;;;;4997275;28;20926;-65
2023/12/10 06:38:34;;;;;;;15.37;3.60;;;7.20;99.90;;;;;;4995795;28;20477;-65
2023/12/10 06:41:02;;;;;;;12.10;3.70;;;7.20;99.90;;;;;;4991985;28;20495;-65
2023/12/10 06:43:30;;;;;;;10.40;3.53;;;7.20;99.90;;;;;;4994750;28;20842;-65
2023/12/10 06:45:59;;;;;;;10.57;3.70;;;7.20;99.90;;;;;;4978016;28;20491;-65
2023/12/10 06:48:28;;;;;;;11.63;3.67;;;7.20;99.90;;;;;;4988474;28;20612;-65
2023/12/10 06:50:56;;;;;;;16.63;4.03;;;7.20;99.90;;;;;;4989596;28;20476;-65
2023/12/10 06:53:24;;;;;;;8.27;3.30;;;7.20;99.90;;;;;;4994012;28;20481;-65
2023/12/10 06:55:52;;;;;;;9.13;2.83;;;7.20;99.90;;;;;;4993482;28;20551;-65
2023/12/10 06:58:20;;;;;;;11.10;4.00;;;7.20;99.90;;;;;;4992949;28;20591;-65
2023/12/10 07:00:48;;;;;;;10.13;2.77;;;7.20;99.90;;;;;;4993060;28;20476;-64
2023/12/10 07:03:18;;;;;;;7.43;2.97;;;7.30;99.90;;;;;;4987184;28;20500;-65
2023/12/10 07:05:46;;;;;;;7.60;3.07;;;7.20;99.90;;;;;;4992193;28;20499;-66
2023/12/10 07:08:14;;;;;;;7.97;2.93;;;7.20;99.90;;;;;;4990377;28;20635;-65
2023/12/10 07:10:42;;;;;;;6.33;2.60;;;7.20;99.90;;;;;;4989141;28;20617;-66
2023/12/10 07:13:10;;;;;;;7.67;2.83;;;7.20;99.90;;;;;;4985964;28;20491;-66
2023/12/10 07:15:39;;;;;;;11.63;3.13;;;7.20;99.90;;;;;;4988076;28;20471;-67
2023/12/10 07:18:07;;;;;;;9.50;2.80;;;7.20;99.90;;;;;;4995133;28;21008;-66
2023/12/10 07:20:36;;;;;;;8.50;2.70;;;7.20;99.90;;;;;;4995003;28;20527;-65
2023/12/10 07:23:04;;;;;;;7.20;3.30;;;7.20;99.90;;;;;;4992010;28;20501;-66
2023/12/10 07:25:33;;;;;;;8.70;2.70;;;7.20;99.90;;;;;;4991614;28;20496;-66
2023/12/10 07:28:02;;;;;;;10.27;3.43;;;7.30;99.90;;;;;;4992933;28;20477;-65
2023/12/10 07:30:31;;;;;;;6.83;2.80;;;7.30;99.90;;;;;;4992519;28;21139;-67
2023/12/10 07:32:59;;;;;;;7.53;2.90;;;7.30;99.90;;;;;;4991767;28;20490;-65
2023/12/10 07:35:27;;;;;;;9.23;2.90;;;7.30;99.90;;;;;;5017643;28;20482;-66
2023/12/10 07:37:56;;;;;;;5.97;3.00;;;7.20;99.90;;;;;;5011817;28;20997;-66
2023/12/10 07:40:24;;;;;;;8.70;3.63;;;7.20;99.90;;;;;;4999001;28;20508;-65
2023/12/10 07:42:52;;;;;;;8.27;3.57;;;7.20;99.90;;;;;;4997059;28;20465;-65
2023/12/10 07:45:20;;;;;;;8.40;3.43;;;7.20;99.90;;;;;;4993722;28;20472;-65
2023/12/10 07:47:48;;;;;;;8.63;4.90;;;7.20;99.90;;;;;;4989788;28;20496;-65
2023/12/10 07:50:17;;;;;;;9.00;4.43;;;7.20;99.90;;;;;;4994475;28;20478;-65
2023/12/10 07:52:45;;;;;;;8.80;7.10;;;7.20;99.90;;;;;;4996545;28;20506;-65
2023/12/10 07:55:14;;;;;;;12.13;5.23;;;7.20;99.90;;;;;;4992446;28;20859;-65
2023/12/10 07:57:42;;;;;;;9.10;7.40;;;7.20;99.90;;;;;;4995832;28;20857;-66
2023/12/10 08:00:11;;;;;;;10.50;5.77;;;7.20;99.90;;;;;;4994727;28;20546;-65
2023/12/10 08:02:39;;;;;;;9.67;3.57;;;7.20;99.90;;;;;;4991647;28;20996;-65
2023/12/10 08:05:08;;;;;;;7.70;3.30;;;7.20;99.90;;;;;;4988716;28;20815;-65
2023/12/10 08:07:37;;;;;;;6.40;3.10;;;7.20;99.90;;;;;;4992281;28;20489;-66
2023/12/10 08:10:06;;;;;;;7.20;3.97;;;7.20;99.90;;;;;;4992949;28;20929;-66
2023/12/10 08:12:35;;;;;;;10.13;5.97;;;7.20;99.90;;;;;;4991373;28;20563;-66
2023/12/10 08:15:05;;;;;;;9.83;6.40;;;7.20;99.90;;;;;;4994197;28;20544;-66
2023/12/10 08:17:33;;;;;;;10.73;5.23;;;7.30;99.90;;;;;;4982786;28;20488;-66
2023/12/10 08:20:02;;;;;;;6.70;3.73;;;7.30;99.90;;;;;;4992900;28;20484;-66
2023/12/10 08:22:30;;;;;;;5.93;3.13;;;7.30;99.90;;;;;;4995181;28;20476;-66
2023/12/10 08:24:59;;;;;;;6.30;4.23;;;7.30;99.90;;;;;;4992414;28;20531;-66
2023/12/10 08:27:27;;;;;;;6.23;4.27;;;7.20;99.90;;;;;;4992729;28;20905;-68
2023/12/10 08:29:56;;;;;;;7.63;5.50;;;7.30;99.90;;;;;;4989691;28;20847;-66
2023/12/10 08:32:27;;;;;;;6.20;2.47;;;7.30;99.90;;;;;;4986073;28;20484;-66
2023/12/10 08:35:00;;;;;;;7.57;4.70;;;7.30;99.90;;;;;;4995363;28;20469;-66
2023/12/10 08:42:48;;;;;;;5.07;3.80;;;7.30;99.90;;;;;;4900456;29;20500;-69
2023/12/10 08:45:19;;;;;;;4.60;2.20;;;7.30;99.90;;;;;;4916787;28;20480;-69
2023/12/10 08:47:47;;;;;;;7.70;5.00;;;7.30;99.90;;;;;;4922166;29;20960;-70
2023/12/10 08:50:15;;;;;;;6.93;5.30;;;7.30;99.90;;;;;;4918271;29;20484;-69
2023/12/10 08:52:43;;;;;;;6.50;4.50;;;7.30;99.90;;;;;;4899861;29;20567;-70
2023/12/10 08:55:11;;;;;;;8.53;3.80;;;7.30;99.90;;;;;;4944018;23;20538;-63
2023/12/10 08:57:40;;;;;;;6.90;3.70;;;7.30;99.90;;;;;;4957895;28;21036;-63
2023/12/10 09:00:09;;;;;;;8.30;4.47;;;7.30;99.90;;;;;;4955807;28;20486;-61
2023/12/10 09:02:38;;;;;;;4.27;2.60;;;7.30;99.90;;;;;;4958758;28;20553;-63
2023/12/10 09:05:07;;;;;;;17.37;4.60;;;7.30;99.90;;;;;;4956392;28;21029;-62
2023/12/10 09:07:35;;;;;;;5.20;4.40;;;7.40;99.90;;;;;;4957153;28;20587;-65
2023/12/10 09:10:04;;;;;;;5.30;3.20;;;7.40;99.90;;;;;;4953145;28;20545;-62
2023/12/10 09:12:39;;;;;;;5.80;4.57;;;7.40;99.90;;;;;;4952776;28;21021;-63
2023/12/10 09:15:09;;;;;;;7.90;4.90;;;7.40;99.90;;;;;;4959252;28;21064;-64
2023/12/10 09:17:39;;;;;;;8.93;7.17;;;7.40;99.90;;;;;;4955877;28;20543;-61
2023/12/10 09:20:09;;;;;;;6.87;5.50;;;7.40;99.90;;;;;;4958205;28;20561;-63
2023/12/10 09:22:37;;;;;;;7.60;3.30;;;7.40;99.90;;;;;;4956438;28;20987;-62
2023/12/10 09:25:06;;;;;;;3.00;2.30;;;7.40;99.90;;;;;;4954336;28;20495;-62
2023/12/10 09:27:34;;;;;;;4.03;2.60;;;7.40;99.90;;;;;;4948829;28;20493;-61
2023/12/10 09:30:02;;;;;;;4.73;2.67;;;7.40;99.90;;;;;;4952373;28;20471;-64
2023/12/10 09:32:30;;;;;;;3.90;2.47;;;7.40;99.90;;;;;;4952956;28;20569;-61
2023/12/10 09:35:01;;;;;;;4.43;2.40;;;7.40;99.90;;;;;;4952953;28;20581;-61
2023/12/10 09:37:29;;;;;;;5.30;2.60;;;7.40;99.90;;;;;;4956350;28;20529;-62
2023/12/10 09:39:57;;;;;;;4.63;2.10;;;7.40;99.90;;;;;;4955921;28;20999;-61
2023/12/10 09:42:26;;;;;;;5.60;2.40;;;7.50;99.90;;;;;;4945632;28;20489;-60
2023/12/10 09:44:54;;;;;;;4.10;2.63;;;7.50;99.90;;;;;;4946672;28;20882;-60
2023/12/10 09:47:26;;;;;;;4.93;3.00;;;7.50;99.90;;;;;;4945114;28;20608;-62
2023/12/10 09:49:57;;;;;;;5.07;2.70;;;7.50;99.90;;;;;;4948352;28;20565;-62
2023/12/10 09:52:27;;;;;;;5.40;3.30;;;7.50;99.90;;;;;;4953125;28;20506;-62
2023/12/10 09:54:55;;;;;;;3.90;2.53;;;7.50;99.90;;;;;;4951423;28;21005;-62
2023/12/10 09:57:24;;;;;;;3.60;2.53;;;7.50;99.90;;;;;;4950117;28;20486;-60
2023/12/10 09:59:52;;;;;;;3.00;2.13;;;7.50;99.90;;;;;;4949954;28;20545;-63
2023/12/10 10:02:20;;;;;;;3.30;2.80;;;7.50;99.90;;;;;;4950146;28;20520;-62
2023/12/10 10:04:49;;;;;;;3.03;2.60;;;7.50;99.90;;;;;;4950906;28;20574;-62
2023/12/10 10:07:17;;;;;;;4.10;2.80;;;7.50;99.90;;;;;;4942063;28;20498;-62
2023/12/10 10:09:46;;;;;;;3.83;2.47;;;7.50;99.90;;;;;;4940307;28;20498;-62
2023/12/10 10:12:14;;;;;;;5.97;2.83;;;7.60;99.90;;;;;;4939669;28;20607;-62
2023/12/10 10:14:55;;;;;;;3.13;2.50;;;7.60;99.90;;;;;;4945602;28;20502;-61
2023/12/10 10:17:27;;;;;;;3.10;2.50;;;7.60;99.90;;;;;;4942462;28;20482;-62
2023/12/10 10:19:56;;;;;;;2.40;2.20;;;7.60;99.90;;;;;;4954125;28;20471;-63
2023/12/10 10:22:25;;;;;;;2.40;2.20;;;7.60;99.90;;;;;;4946705;28;20484;-62
2023/12/10 10:24:54;;;;;;;3.33;2.47;;;7.60;99.90;;;;;;4942806;28;26163;-62
2023/12/10 10:27:23;;;;;;;2.40;2.20;;;7.60;99.90;;;;;;4942987;28;21517;-62
2023/12/10 10:29:53;;;;;;;3.10;2.50;;;7.60;99.90;;;;;;4951574;28;20470;-62
2023/12/10 10:32:23;;;;;;;3.53;2.87;;;7.60;99.90;;;;;;4953481;28;20597;-62
2023/12/10 10:34:52;;;;;;;3.13;2.40;;;7.70;99.90;;;;;;4958409;28;20486;-61
2023/12/10 10:37:20;;;;;;;4.53;2.97;;;7.70;99.90;;;;;;4956331;28;20478;-63
2023/12/10 10:39:49;;;;;;;7.90;2.67;;;7.70;99.90;;;;;;4957996;28;20469;-64
2023/12/10 10:42:19;;;;;;;3.63;2.57;;;7.70;99.90;;;;;;4957337;28;20481;-63
2023/12/10 10:44:47;;;;;;;6.13;2.50;;;7.70;99.90;;;;;;4958907;28;21187;-64
2023/12/10 10:47:18;;;;;;;3.10;2.50;;;7.70;99.90;;;;;;4960259;28;20578;-64
2023/12/10 10:49:51;;;;;;;2.30;1.80;;;7.70;99.90;;;;;;4959634;28;20473;-61
2023/12/10 10:52:41;;;;;;;2.10;1.70;;;7.80;99.90;;;;;;4959235;28;20470;-62
2023/12/10 10:55:10;;;;;;;2.67;2.00;;;7.80;99.90;;;;;;4959410;28;20855;-62
2023/12/10 10:57:40;;;;;;;2.67;2.03;;;7.80;99.90;;;;;;4957721;28;20967;-63
2023/12/10 11:00:34;;;;;;;2.33;2.00;;;7.80;99.90;;;;;;4958229;28;20774;-62
2023/12/10 11:03:04;;;;;;;2.47;1.83;;;7.80;99.90;;;;;;4961459;28;20486;-62
2023/12/10 11:05:33;;;;;;;2.30;1.70;;;7.90;99.90;;;;;;4960337;28;20496;-63
2023/12/10 11:08:03;;;;;;;2.60;2.40;;;7.90;99.90;;;;;;4961727;28;20486;-64
2023/12/10 11:10:32;;;;;;;2.77;1.90;;;7.90;99.90;;;;;;4961341;28;20871;-63
2023/12/10 11:13:01;;;;;;;2.27;2.07;;;7.90;99.90;;;;;;4963480;28;20506;-64
2023/12/10 11:15:30;;;;;;;2.30;2.10;;;7.90;99.90;;;;;;4963224;28;20904;-63
2023/12/10 11:18:00;;;;;;;3.10;2.47;;;7.90;99.90;;;;;;4960321;28;20577;-62
2023/12/10 11:20:38;;;;;;;2.00;1.80;;;8.00;99.90;;;;;;4963671;28;20489;-65
2023/12/10 11:23:07;;;;;;;2.53;2.33;;;8.00;99.90;;;;;;4964040;28;20541;-62
2023/12/10 11:25:36;;;;;;;2.40;2.20;;;8.00;99.90;;;;;;4955948;28;20519;-62
2023/12/10 11:28:11;;;;;;;3.30;2.30;;;8.00;99.90;;;;;;4955761;28;20498;-62
2023/12/10 11:30:40;;;;;;;2.30;2.10;;;8.10;99.90;;;;;;4955563;28;20561;-65
2023/12/10 11:33:09;;;;;;;2.80;2.17;;;8.10;99.90;;;;;;4941792;28;21042;-63
2023/12/10 11:35:38;;;;;;;3.23;2.13;;;8.10;99.90;;;;;;4945014;28;20520;-62
2023/12/10 11:38:06;;;;;;;2.60;2.40;;;8.20;99.90;;;;;;4950288;28;20624;-60
2023/12/10 11:40:34;;;;;;;2.67;2.47;;;8.20;99.90;;;;;;4953275;28;20925;-62
2023/12/10 11:43:04;;;;;;;3.30;3.00;;;8.20;99.90;;;;;;4948963;28;20552;-63
2023/12/10 11:45:34;;;;;;;2.87;2.60;;;8.20;99.90;;;;;;4948595;28;20640;-61
2023/12/10 11:48:04;;;;;;;2.80;2.60;;;8.30;99.90;;;;;;4946678;28;20466;-62
2023/12/10 11:50:33;;;;;;;2.80;2.60;;;8.30;99.90;;;;;;4956210;28;20474;-61
2023/12/10 11:53:02;;;;;;;3.13;2.83;;;8.30;99.90;;;;;;4950352;28;20884;-63
2023/12/10 11:55:31;;;;;;;2.90;2.50;;;8.30;99.90;;;;;;4953018;28;21093;-62
2023/12/10 11:57:59;;;;;;;4.33;3.27;;;8.30;99.90;;;;;;4955222;28;20769;-62
2023/12/10 12:00:28;;;;;;;4.57;3.80;;;8.30;99.90;;;;;;4953880;28;20486;-62
2023/12/10 12:02:57;;;;;;;2.90;2.60;;;8.30;99.90;;;;;;4944700;28;20489;-61
2023/12/10 12:05:25;;;;;;;4.20;3.00;;;8.30;99.90;;;;;;4950589;28;20522;-62
2023/12/10 12:07:54;;;;;;;6.20;3.30;;;8.30;99.90;;;;;;4955917;28;20584;-63
2023/12/10 12:10:22;;;;;;;6.83;3.40;;;8.30;99.90;;;;;;4955360;28;21034;-63
2023/12/10 12:12:50;;;;;;;8.47;4.37;;;8.40;99.90;;;;;;4957302;28;20475;-68
2023/12/10 12:15:19;;;;;;;5.70;3.60;;;8.40;99.90;;;;;;4952064;28;20488;-62
2023/12/10 12:17:47;;;;;;;5.67;3.40;;;8.40;99.90;;;;;;4951623;28;20506;-67
2023/12/10 12:20:19;;;;;;;6.70;3.73;;;8.40;99.90;;;;;;4953108;28;20848;-67
2023/12/10 12:22:47;;;;;;;5.20;4.33;;;8.40;99.90;;;;;;4953874;28;20506;-66
2023/12/10 12:25:16;;;;;;;5.30;3.50;;;8.40;99.90;;;;;;4950156;28;20872;-65
2023/12/10 12:27:45;;;;;;;5.50;3.23;;;8.40;99.90;;;;;;4951429;28;20501;-66
2023/12/10 12:30:16;;;;;;;6.20;3.17;;;8.40;99.90;;;;;;4958510;28;20693;-68
2023/12/10 12:32:44;;;;;;;3.73;2.57;;;8.40;99.90;;;;;;4958738;28;20466;-69
2023/12/10 12:35:12;;;;;;;5.30;2.43;;;8.40;99.90;;;;;;4960175;28;20497;-68
2023/12/10 12:37:42;;;;;;;4.23;2.10;;;8.40;99.90;;;;;;4957180;28;20689;-67
2023/12/10 12:40:11;;;;;;;5.10;2.10;;;8.40;99.90;;;;;;4951413;28;20528;-67
2023/12/10 12:42:39;;;;;;;3.73;1.83;;;8.40;99.90;;;;;;4954520;28;20482;-67
2023/12/10 12:45:08;;;;;;;5.70;2.00;;;8.40;99.90;;;;;;4955234;28;20509;-66
2023/12/10 12:47:37;;;;;;;7.43;2.33;;;8.50;99.90;;;;;;4957943;28;20513;-61
2023/12/10 12:50:07;;;;;;;4.77;1.90;;;8.50;99.90;;;;;;4956811;28;20498;-63
2023/12/10 12:52:36;;;;;;;8.40;2.60;;;8.40;99.90;;;;;;4958472;28;20935;-62
2023/12/10 12:55:06;;;;;;;6.87;2.43;;;8.40;99.90;;;;;;4952490;28;20549;-68
2023/12/10 12:57:34;;;;;;;8.03;2.63;;;8.50;99.90;;;;;;4955501;28;20502;-66
2023/12/10 13:00:04;;;;;;;6.10;2.83;;;8.50;99.90;;;;;;4955484;28;20534;-66
2023/12/10 13:02:32;;;;;;;9.70;3.30;;;8.40;99.90;;;;;;4957060;28;20853;-65
2023/12/10 13:05:00;;;;;;;11.00;2.83;;;8.50;99.90;;;;;;4953379;28;20512;-62
2023/12/10 13:07:29;;;;;;;6.53;2.93;;;8.40;99.90;;;;;;4960007;28;20478;-64
2023/12/10 13:09:57;;;;;;;7.67;2.90;;;8.50;99.90;;;;;;4954690;28;20503;-63